NCAR-RAP Real-Time Weather Data

Output produced by METARs form (26 May 2022  08:22 UTC)
found at http://weather.rap.ucar.edu/surface/
 
KDCA 260752Z 12006KT 10SM OVC027 16/11 A3028 RMK AO2 SLP252 T01610106
KDCA 260733Z 11005KT 10SM OVC028 17/11 A3028 RMK AO2 T01670106
KDCA 260710Z 13004KT 10SM OVC030 17/10 A3029 RMK AO2 T01670100
KDCA 260652Z 10004KT 10SM OVC029 17/10 A3029 RMK AO2 SLP256 T01670100
KDCA 260552Z 11005KT 10SM OVC055 17/09 A3030 RMK AO2 SLP258 T01670089 10200 20167 58006
KDCA 260452Z 13005KT 10SM OVC055 17/09 A3031 RMK AO2 SLP263 T01720089 402220139
KDCA 260352Z 13006KT 10SM OVC048 18/08 A3032 RMK AO2 SLP268 T01780083
KDCA 260252Z 09010KT 10SM BKN046 OVC100 18/08 A3032 RMK AO2 SLP265 T01830083 50003
KDCA 260152Z 10008KT 10SM BKN050 19/09 A3032 RMK AO2 SLP267 T01890089
KDCA 260052Z 12009KT 10SM BKN050 19/08 A3031 RMK AO2 SLP264 T01940083
KDCA 252352Z 11008KT 10SM BKN055 BKN250 20/09 A3031 RMK AO2 SLP262 T02000089 10222 20200 53003
KDCA 252252Z 12009KT 10SM BKN060 21/09 A3031 RMK AO2 SLP261 T02060089
KDCA 252152Z 10011KT 10SM BKN060 22/09 A3029 RMK AO2 SLP257 T02170094
KDCA 252052Z 12011KT 10SM FEW038 BKN060 22/09 A3030 RMK AO2 SLP259 T02170094 56013
KDCA 251952Z 13012KT 10SM FEW038 BKN060 22/10 A3031 RMK AO2 SLP262 T02170100
KDCA 251852Z 09009KT 10SM SCT038 OVC060 22/11 A3032 RMK AO2 SLP267 BINOVC T02170111
KDCA 251752Z 08006G16KT 10SM SCT038 OVC050 22/12 A3034 RMK AO2 SLP272 T02170122 10217 20156 58001
KDCA 251652Z 09013G18KT 10SM SCT031 BKN050 BKN250 21/12 A3034 RMK AO2 SLP272 T02110122
KDCA 251552Z 09010KT 10SM SCT031 OVC048 21/13 A3034 RMK AO2 SLP273 T02060128
KDCA 251452Z 07008KT 10SM SCT022 OVC048 19/13 A3034 RMK AO2 SLP273 T01940133 50003
KDCA 251445Z 10011KT 10SM SCT022 OVC048 19/13 A3034 RMK AO2 T01890133
KDCA 251352Z 05008KT 10SM BKN017 OVC050 18/13 A3035 RMK AO2 SLP275 T01780133
KDCA 251326Z 05007KT 10SM BKN017 OVC050 17/13 A3034 RMK AO2 T01720128
KDCA 251252Z 06006KT 10SM BKN014 OVC050 17/12 A3035 RMK AO2 SLP278 T01670122
KDCA 251152Z 04009KT 10SM BKN011 OVC050 16/12 A3033 RMK AO2 SLP270 70003 T01610122 10161 20139 51015
KDCA 251136Z 05012KT 10SM BKN011 BKN031 OVC050 15/12 A3033 RMK AO2 T01500117
KDCA 251052Z 05010KT 10SM BKN017 OVC021 15/11 A3032 RMK AO2 SLP266 T01500106
KDCA 250952Z 03010KT 10SM OVC021 14/10 A3030 RMK AO2 SLP260 T01440100
KDCA 250913Z 04006KT 10SM BKN022 14/09 A3029 RMK AO2 T01440089
KDCA 250852Z 04007KT 10SM SCT065 14/10 A3029 RMK AO2 SLP255 T01440100 53002
KDCA 250752Z 04008KT 10SM SCT065 14/08 A3027 RMK AO2 SLP250 T01440083
KDCA 250652Z 03005KT 10SM OVC065 16/09 A3029 RMK AO2 SLP255 T01560089
KDCA 250552Z 05006KT 10SM OVC065 16/09 A3028 RMK AO2 SLP254 T01610094 10172 20156 58004
KDCA 250452Z 03006KT 10SM OVC060 16/09 A3030 RMK AO2 SLP259 T01610089 401780150
KDCA 250352Z 07007KT 10SM OVC060 16/09 A3029 RMK AO2 SLP256 T01610094
KDCA 250252Z 06006KT 10SM BKN055 16/09 A3029 RMK AO2 SLP257 T01610094 53010
KDCA 250152Z 07006KT 10SM FEW042 BKN046 BKN065 16/09 A3029 RMK AO2 SLP255 T01610094
KDCA 250052Z 06009KT 10SM FEW037 BKN043 OVC065 17/09 A3027 RMK AO2 SLP250 T01670089
KDCA 242352Z 07010KT 10SM FEW032 OVC049 17/09 A3026 RMK AO2 SLP247 T01720094 10178 20167 53010
KDCA 242252Z 06013KT 10SM FEW027 BKN043 OVC055 17/10 A3025 RMK AO2 SLP243 T01720100
KDCA 242152Z 06013KT 10SM FEW022 SCT037 OVC048 18/10 A3024 RMK AO2 SLP240 T01780100
KDCA 242052Z 07013G19KT 10SM FEW017 OVC032 18/11 A3024 RMK AO2 SLP238 T01780111 50001
KDCA 241956Z 07012KT 10SM FEW017 OVC032 17/11 A3025 RMK AO2 T01720111
KDCA 241952Z 09010KT 10SM FEW012 BKN020 OVC035 17/11 A3024 RMK AO2 SLP241 T01720111
KDCA 241852Z 10014G20KT 10SM SCT010 BKN017 OVC030 17/13 A3024 RMK AO2 SLP238 T01720128
KDCA 241840Z 10015G22KT 10SM SCT010 BKN017 OVC030 17/13 A3024 RMK AO2 T01720133
KDCA 241802Z 08011KT 10SM SCT008 BKN012 OVC028 17/14 A3024 RMK AO2 T01720144
KDCA 241752Z 08013KT 6SM BR BKN008 OVC014 17/14 A3023 RMK AO2 RAB15E39 SLP236 P0002 60003 T01670144 10172 20156 58006
KDCA 241736Z 09011KT 2 1/2SM R01/5000VP6000FT -RA BR BKN008 OVC015 17/14 A3024 RMK AO2 RAB15 P0002 T01670144
KDCA 241726Z 07013KT 1 3/4SM R01/5000VP6000FT -RA BR BKN009 OVC015 17/14 A3024 RMK AO2 RAB15 P0002 T01670144
KDCA 241716Z 07010KT 2 1/2SM R01/5000VP6000FT -RA BR BKN009 OVC014 17/15 A3024 RMK AO2 RAB15 P0000 T01720150
KDCA 241652Z 06008KT 4SM BR SCT008 OVC014 17/15 A3024 RMK AO2 RAB05E14 SLP240 P0000 T01720150
KDCA 241644Z 06009KT 3SM BR BKN008 OVC015 17/14 A3024 RMK AO2 RAB05E14 P0000 T01670144
KDCA 241635Z 05008KT 2 1/2SM BR BKN007 OVC015 17/14 A3025 RMK AO2 RAB05E14 P0000 T01670144
KDCA 241628Z 04008KT 3SM BR SCT007 OVC012 17/14 A3025 RMK AO2 RAB05E14 P0000 T01670144
KDCA 241618Z 04008KT 4SM BR BKN007 OVC014 17/14 A3025 RMK AO2 RAB05E14 P0000 T01670144
KDCA 241610Z 04007KT 2 1/2SM -RA BR BKN007 OVC014 16/14 A3025 RMK AO2 RAB05 P0000 T01610144
KDCA 241552Z 05009KT 3SM BR BKN007 OVC013 16/14 A3025 RMK AO2 RAE20B43E48 SLP243 P0001 T01610139
KDCA 241530Z 07007KT 3SM BR BKN008 BKN016 OVC020 16/14 A3025 RMK AO2 RAE20 P0000 T01610139
KDCA 241501Z 05011KT 2 1/2SM -RA BKN012 OVC019 16/13 A3025 RMK AO2 P0000 T01610133
KDCA 241452Z 04009KT 3SM -RA BKN013 BKN018 OVC039 16/13 A3025 RMK AO2 RAB39 SLP242 P0000 60000 T01610133 50009
KDCA 241442Z 04008KT 6SM -RA SCT011 BKN016 OVC041 16/13 A3025 RMK AO2 RAB39 P0000 T01610133
KDCA 241352Z 07007KT 10SM FEW027 BKN032 OVC046 17/13 A3025 RMK AO2 SLP242 T01670128
KDCA 241252Z 06007KT 10SM FEW013 BKN038 OVC046 16/13 A3023 RMK AO2 RAB04E28 SLP237 P0000 T01610128
KDCA 241152Z 06006KT 10SM FEW011 SCT023 OVC040 16/14 A3022 RMK AO2 RAE52 SLP233 P0001 60027 70029 T01610139 10161 20150 53016
KDCA 241126Z 06006KT 8SM -RA FEW009 SCT023 OVC040 16/14 A3022 RMK AO2 P0000 T01610139
KDCA 241107Z 05010KT 8SM -RA SCT009 BKN024 OVC040 16/14 A3021 RMK AO2 P0000 T01610139
KDCA 241052Z 04008KT 8SM -RA BKN011 OVC017 16/13 A3020 RMK AO2 SLP226 P0002 T01560133
KDCA 241042Z 04007KT 7SM -RA BKN012 OVC017 16/13 A3019 RMK AO2 P0001 T01560133
KDCA 241012Z 02009KT 10SM -RA FEW009 BKN050 OVC100 16/13 A3017 RMK AO2 P0000 T01560133
KDCA 240952Z 03008KT 10SM -RA FEW010 BKN050 OVC100 15/13 A3016 RMK AO2 SLP212 P0004 T01500133
KDCA 240852Z 03009KT 7SM -RA FEW040 SCT060 OVC095 15/13 A3017 RMK AO2 SLP216 P0006 60020 T01500128 58014